CST,Max TemperatureF,Mean TemperatureF,Min TemperatureF,Max Dew PointF,MeanDew PointF,Min DewpointF,Max Humidity, Mean Humidity, Min Humidity, Max Sea Level PressureIn, Mean Sea Level PressureIn, Min Sea Level PressureIn, Max VisibilityMiles, Mean VisibilityMiles, Min VisibilityMiles, Max Wind SpeedMPH, Mean Wind SpeedMPH, Max Gust SpeedMPH,PrecipitationIn, CloudCover, Events, WindDirDegrees
2012-11-1,88,66,46,52,46,40,90,57,19,30.04,29.96,29.90,10,10,10,12,2,17,0.00,0,,224
2012-11-2,87,72,57,58,51,44,77,51,29,29.97,29.91,29.85,10,10,10,15,7,22,0.00,0,,200
2012-11-3,82,70,57,61,55,42,96,63,42,30.09,30.00,29.91,10,10,10,10,5,17,0.00,1,,31
2012-11-4,75,62,51,43,40,36,71,49,25,30.15,30.09,30.03,10,10,10,7,5,,0.00,0,,352
2012-11-5,75,60,44,44,38,31,89,51,25,30.11,30.06,30.01,10,10,10,14,4,24,0.00,0,,343
2012-11-6,73,55,37,43,39,35,89,58,27,30.17,30.11,30.04,10,10,10,6,1,,0.00,0,,243
2012-11-7,73,57,41,43,37,32,89,54,23,30.20,30.12,30.05,10,10,10,7,1,,0.00,0,,140
2012-11-8,81,68,54,57,49,38,65,52,38,30.08,29.99,29.91,10,10,10,18,9,31,0.00,0,,165
2012-11-9,82,73,64,61,58,53,87,61,38,30.00,29.93,29.85,10,10,10,21,15,33,0.00,1,,181
2012-11-10,80,72,64,61,59,56,88,66,43,29.94,29.86,29.77,10,10,10,24,17,36,0.00,3,,172
2012-11-11,71,56,39,63,53,34,88,71,42,30.30,29.91,29.72,10,10,7,24,15,36,0.01,6,Rain,274
2012-11-12,55,42,30,32,24,16,82,58,22,30.53,30.47,30.32,10,10,10,10,5,,0.00,0,,355
2012-11-13,55,40,25,29,23,20,92,52,25,30.54,30.44,30.36,10,10,10,14,2,17,0.00,2,,131
2012-11-14,61,46,30,33,27,22,85,51,22,30.44,30.36,30.29,10,10,10,7,1,,0.00,0,,160
2012-11-15,64,49,34,34,31,27,76,54,31,30.35,30.30,30.23,10,10,10,10,3,,0.00,0,,130
2012-11-16,64,48,32,35,31,28,92,61,26,30.44,30.37,30.33,10,10,9,10,1,,0.00,0,,83
2012-11-17,64,46,28,34,29,27,96,58,24,30.43,30.35,30.29,10,10,10,12,2,,0.00,0,,149
2012-11-18,68,52,37,37,35,30,76,47,30,30.30,30.23,30.17,10,10,9,15,5,30,0.00,3,,156
2012-11-19,73,64,55,53,48,35,81,61,42,30.20,30.15,30.09,10,10,9,14,8,21,0.00,3,,173
2012-11-20,78,62,45,56,49,44,97,75,36,30.20,30.15,30.10,10,8,2,8,1,,0.00,0,,51
2012-11-21,79,61,43,55,46,42,100,65,29,30.26,30.17,30.08,10,10,8,13,4,18,0.00,0,,168
2012-11-22,78,66,54,54,50,44,78,60,40,30.09,30.04,29.97,10,10,10,16,8,26,0.00,0,,180
2012-11-23,64,54,42,52,30,19,84,41,19,30.45,30.33,30.08,10,10,10,25,9,34,0.00,3,,5
2012-11-24,60,44,28,24,21,17,76,42,19,30.44,30.29,30.09,10,10,10,8,4,,0.00,0,,170
2012-11-25,75,58,41,52,36,22,67,44,27,30.07,29.92,29.81,10,10,10,16,8,24,0.00,0,,175
2012-11-26,71,58,46,57,44,30,97,62,30,30.28,30.01,29.82,10,10,5,23,11,31,0.00,3,,312
2012-11-27,52,44,33,36,30,26,96,66,49,30.47,30.36,30.28,10,10,10,14,9,,0.00,3,,338
2012-11-28,66,47,28,40,34,27,100,66,33,30.44,30.34,30.24,10,9,8,14,4,16,0.00,0,,158
2012-11-29,68,55,42,48,40,35,82,59,30,30.23,30.15,30.08,10,10,10,16,8,22,0.00,0,,166
2012-11-30,78,64,51,58,55,47,96,75,46,30.12,30.05,29.98,10,9,4,14,7,23,0.00,2,,175